Time;durP1;ratioP1;P1;durP2;ratioP2;P2;SDS_P1;SDS_P2;PMS_P1;PMS_P2;Temp;Humidity;BMP_temperature;BMP_pressure;BME280_temperature;BME280_humidity;BME280_pressure;Samples;Min_cycle;Max_cycle;Signal;HPM_P1;HPM_P2
2020/12/14 00:02:19;;;;;;;5.03;3.13;;;;;;;8.12;70.05;99082.00;4961073;29;20054;-87
2020/12/14 00:04:45;;;;;;;5.80;2.95;;;;;;;8.12;69.66;99080.22;4959221;29;20058;-86
2020/12/14 00:07:11;;;;;;;6.72;2.53;;;;;;;8.12;69.71;99074.97;4961397;29;20061;-86
2020/12/14 00:09:38;;;;;;;5.13;2.60;;;;;;;8.14;69.78;99083.59;4958159;28;20506;-87
2020/12/14 00:12:04;;;;;;;5.18;2.42;;;;;;;8.14;69.53;99083.59;4957954;28;20058;-86
2020/12/14 00:14:30;;;;;;;5.28;2.72;;;;;;;8.15;69.23;99061.66;4960448;28;20055;-85
2020/12/14 00:16:56;;;;;;;4.90;2.50;;;;;;;8.15;69.26;99068.72;4960425;28;20055;-85
2020/12/14 00:19:23;;;;;;;4.88;2.42;;;;;;;8.13;69.35;99060.94;4959142;28;20106;-86
2020/12/14 00:21:53;;;;;;;8.32;2.50;;;;;;;8.12;68.99;99067.13;4960462;29;20102;-86
2020/12/14 00:24:23;;;;;;;3.58;2.22;;;;;;;8.11;69.26;99054.91;4959233;29;20093;-86
2020/12/14 00:26:49;;;;;;;4.63;2.20;;;;;;;8.10;69.27;99074.22;4958595;28;20054;-87
2020/12/14 00:29:17;;;;;;;8.88;2.50;;;;;;;8.10;68.97;99066.34;4960999;29;20051;-88
2020/12/14 00:31:43;;;;;;;5.53;2.17;;;;;;;8.08;69.33;99073.47;4958385;29;20050;-88
2020/12/14 00:34:09;;;;;;;6.10;2.42;;;;;;;8.06;68.97;99062.22;4961651;28;20106;-88
2020/12/14 00:36:56;;;;;;;5.03;2.58;;;;;;;8.05;69.15;99063.16;4963925;29;20548;-86
2020/12/14 00:39:22;;;;;;;5.95;2.55;;;;;;;8.05;69.27;99044.81;4964017;28;20062;-86
2020/12/14 00:41:48;;;;;;;6.55;2.28;;;;;;;8.05;69.00;99047.44;4961497;28;20043;-88
2020/12/14 00:44:14;;;;;;;4.97;2.30;;;;;;;8.04;69.46;99049.19;4960422;28;20066;-88
2020/12/14 00:46:44;;;;;;;5.63;2.00;;;;;;;8.04;68.83;99048.38;5001850;23;20043;-86
2020/12/14 00:49:11;;;;;;;5.68;2.33;;;;;;;8.06;69.36;99051.72;4958901;28;20059;-87
2020/12/14 00:51:37;;;;;;;4.32;2.35;;;;;;;8.06;69.09;99049.97;4957562;28;20070;-86
2020/12/14 00:54:03;;;;;;;3.25;2.50;;;;;;;8.08;69.11;99047.25;4958102;29;20051;-87
2020/12/14 00:56:29;;;;;;;6.40;2.80;;;;;;;8.08;69.33;99044.63;4957267;28;20070;-86
2020/12/14 00:58:55;;;;;;;6.80;2.38;;;;;;;8.10;69.17;99049.78;4956993;29;20502;-86
2020/12/14 01:01:21;;;;;;;4.60;2.42;;;;;;;8.11;68.92;99056.72;4958226;29;20418;-85
2020/12/14 01:03:48;;;;;;;5.38;2.42;;;;;;;8.11;69.38;99049.69;4957900;28;20134;-86
2020/12/14 01:06:14;;;;;;;2.83;1.75;;;;;;;8.10;69.11;99048.00;4957091;28;20051;-86
2020/12/14 01:08:41;;;;;;;4.28;2.00;;;;;;;8.11;69.10;99052.28;4956893;29;20540;-86
2020/12/14 01:11:09;;;;;;;5.40;2.20;;;;;;;8.13;69.05;99054.84;4958128;28;20425;-85
2020/12/14 01:13:35;;;;;;;2.88;1.98;;;;;;;8.15;69.31;99048.56;4957840;28;20395;-86
2020/12/14 01:16:06;;;;;;;4.15;1.95;;;;;;;8.16;69.36;99042.41;4957756;28;20055;-86
2020/12/14 01:18:32;;;;;;;4.07;1.80;;;;;;;8.19;68.70;99044.00;4958076;28;20441;-86
2020/12/14 01:20:58;;;;;;;5.40;1.95;;;;;;;8.18;69.19;99040.53;4958010;28;20059;-86
2020/12/14 01:23:24;;;;;;;5.75;2.13;;;;;;;8.20;68.89;99040.44;4957752;28;20050;-86
2020/12/14 01:25:50;;;;;;;3.90;1.70;;;;;;;8.21;69.03;99040.34;4956759;29;20413;-86
2020/12/14 01:28:17;;;;;;;5.85;2.17;;;;;;;8.24;68.76;99043.72;4955998;29;20051;-86
2020/12/14 01:30:43;;;;;;;5.00;2.00;;;;;;;8.23;68.76;99031.56;4956416;28;20055;-86
2020/12/14 01:33:09;;;;;;;4.22;2.22;;;;;;;8.25;68.98;99032.28;4956159;28;20409;-86
2020/12/14 01:35:35;;;;;;;2.80;1.92;;;;;;;8.27;68.92;99035.69;4956535;29;20055;-86
2020/12/14 01:38:01;;;;;;;3.45;1.60;;;;;;;8.27;68.51;99019.94;4957499;29;20062;-86
2020/12/14 01:40:27;;;;;;;4.97;1.70;;;;;;;8.30;68.44;99030.25;4956749;29;20051;-86
2020/12/14 01:42:53;;;;;;;4.72;2.42;;;;;;;8.29;68.42;99018.91;4957221;28;20047;-86
2020/12/14 01:45:20;;;;;;;5.88;2.00;;;;;;;8.31;68.63;99005.72;4956582;28;20087;-86
2020/12/14 01:47:50;;;;;;;8.13;1.70;;;;;;;8.32;68.07;99012.66;4957615;28;20055;-86
2020/12/14 01:50:17;;;;;;;2.88;1.77;;;;;;;8.34;68.61;99009.00;4957867;28;20134;-87
2020/12/14 01:52:45;;;;;;;5.20;1.83;;;;;;;8.35;68.57;99015.91;4955785;28;20486;-86
2020/12/14 01:55:18;;;;;;;4.90;2.05;;;;;;;8.35;67.51;99015.09;4957467;28;20066;-86
2020/12/14 01:57:45;;;;;;;3.42;1.63;;;;;;;8.39;68.44;99016.59;4955936;29;20055;-86
2020/12/14 02:00:12;;;;;;;5.80;1.73;;;;;;;8.39;68.31;99013.97;4956206;28;20074;-86
2020/12/14 02:02:38;;;;;;;4.32;1.65;;;;;;;8.41;68.45;99011.25;4955892;28;20054;-86
2020/12/14 02:05:06;;;;;;;2.97;1.55;;;;;;;8.42;68.57;99013.81;4955998;29;20498;-86
2020/12/14 02:07:32;;;;;;;6.13;1.90;;;;;;;8.44;68.66;99013.69;4955990;29;20063;-86
2020/12/14 02:09:59;;;;;;;6.00;1.73;;;;;;;8.45;68.66;99013.59;4955973;28;20074;-86
2020/12/14 02:12:27;;;;;;;3.40;1.80;;;;;;;8.47;68.00;99021.38;4955485;29;20047;-86
2020/12/14 02:14:56;;;;;;;4.05;1.92;;;;;;;8.48;68.33;99013.41;4955852;28;20055;-86
2020/12/14 02:17:24;;;;;;;8.02;2.13;;;;;;;8.50;68.30;99001.97;4956920;28;20051;-86
2020/12/14 02:19:51;;;;;;;7.45;1.88;;;;;;;8.50;68.23;98999.34;4956824;28;20059;-86
2020/12/14 02:22:18;;;;;;;3.25;1.60;;;;;;;8.49;68.22;98998.53;4955453;29;20047;-86
2020/12/14 02:24:53;;;;;;;3.10;1.65;;;;;;;8.46;67.66;98986.41;4955752;28;20058;-86
2020/12/14 02:27:20;;;;;;;4.35;1.83;;;;;;;8.48;68.83;98986.34;4956499;28;20106;-86
2020/12/14 02:29:47;;;;;;;3.90;1.60;;;;;;;8.46;68.67;98990.84;4955689;29;20055;-86
2020/12/14 02:32:18;;;;;;;4.35;1.75;;;;;;;8.43;68.21;98989.25;4955267;29;20131;-86
2020/12/14 02:34:45;;;;;;;5.10;1.77;;;;;;;8.44;68.66;98990.06;4956720;28;20051;-86
2020/12/14 02:37:14;;;;;;;6.70;1.67;;;;;;;8.41;68.54;98991.09;4956409;28;20509;-86
2020/12/14 02:39:41;;;;;;;3.83;1.42;;;;;;;8.41;68.63;98990.28;4956437;28;20501;-86
2020/12/14 02:42:15;;;;;;;7.45;1.65;;;;;;;8.39;68.50;98985.13;4955457;29;20054;-86
2020/12/14 02:44:42;;;;;;;4.10;1.58;;;;;;;8.40;68.62;98973.69;4955209;29;20228;-86
2020/12/14 02:47:09;;;;;;;4.45;1.85;;;;;;;8.40;68.53;98975.47;4954978;29;20478;-86
2020/12/14 02:49:36;;;;;;;3.50;1.52;;;;;;;8.40;68.92;98967.59;4956402;28;20047;-86
2020/12/14 02:52:04;;;;;;;4.63;1.52;;;;;;;8.40;68.36;98971.06;4955009;28;20047;-87
2020/12/14 02:54:30;;;;;;;3.13;1.63;;;;;;;8.41;68.56;98969.31;4956336;28;20066;-86
2020/12/14 02:56:56;;;;;;;7.05;1.80;;;;;;;8.41;68.25;98964.06;4956348;28;20058;-86
2020/12/14 02:59:23;;;;;;;2.50;1.45;;;;;;;8.40;68.28;98968.44;4955176;29;20410;-86
2020/12/14 03:01:50;;;;;;;3.85;1.55;;;;;;;8.41;68.48;98958.81;4956120;28;20051;-86
2020/12/14 03:04:18;;;;;;;9.70;1.60;;;;;;;8.40;68.22;98957.97;4955984;28;20453;-86
2020/12/14 03:06:45;;;;;;;4.22;1.60;;;;;;;8.41;67.96;98950.94;4954898;29;20394;-86
2020/12/14 03:09:13;;;;;;;4.07;1.83;;;;;;;8.38;68.12;98944.13;4955772;28;20058;-86
2020/12/14 03:11:40;;;;;;;3.97;1.40;;;;;;;8.39;68.24;98942.31;4954838;29;20051;-86
2020/12/14 03:14:07;;;;;;;4.07;1.65;;;;;;;8.38;67.91;98938.00;4954716;28;20051;-87
2020/12/14 03:16:53;;;;;;;6.30;1.20;;;;;;;8.35;67.31;98925.94;4954537;28;20054;-86
2020/12/14 03:19:19;;;;;;;3.92;1.65;;;;;;;8.38;68.18;98936.25;4954912;29;20058;-86
2020/12/14 03:21:46;;;;;;;4.07;1.58;;;;;;;8.37;67.97;98947.66;4955832;29;20047;-86
2020/12/14 03:24:12;;;;;;;4.70;1.58;;;;;;;8.37;68.05;98942.41;4955450;28;20051;-86
2020/12/14 03:26:39;;;;;;;3.60;1.60;;;;;;;8.37;68.15;98937.16;4955729;28;20055;-86
2020/12/14 03:29:06;;;;;;;5.07;1.20;;;;;;;8.37;67.73;98941.56;4954770;29;20062;-86
2020/12/14 03:31:32;;;;;;;2.42;1.25;;;;;;;8.36;67.92;98930.22;4954448;29;20054;-86
2020/12/14 03:33:59;;;;;;;2.67;1.70;;;;;;;8.34;67.60;98935.56;4955385;28;20055;-87
2020/12/14 03:36:25;;;;;;;4.57;1.50;;;;;;;8.31;67.67;98924.44;4955662;28;20047;-86
2020/12/14 03:38:54;;;;;;;4.78;1.38;;;;;;;8.30;67.41;98928.00;4954256;29;20517;-86
2020/12/14 03:41:21;;;;;;;3.25;1.30;;;;;;;8.27;67.34;98931.66;4954527;29;20414;-86
2020/12/14 03:43:49;;;;;;;5.85;1.40;;;;;;;8.25;67.42;98927.41;4954561;28;20395;-87
2020/12/14 03:46:24;;;;;;;3.50;1.25;;;;;;;8.22;66.82;98936.31;4954106;28;20047;-87
2020/12/14 03:48:55;;;;;;;4.50;1.40;;;;;;;8.23;67.81;98926.69;4955378;28;20047;-86
2020/12/14 03:51:23;;;;;;;4.82;1.30;;;;;;;8.23;67.65;98919.66;4955566;28;20056;-86
2020/12/14 03:53:50;;;;;;;5.93;1.77;;;;;;;8.21;67.92;98916.28;4955298;28;20055;-86
2020/12/14 03:56:23;;;;;;;3.72;1.20;;;;;;;8.19;66.92;98919.00;4955250;28;20482;-86
2020/12/14 03:58:50;;;;;;;;;;;;;;;8.21;65.34;98926.75;4955694;28;20597;-85
2020/12/14 04:01:25;;;;;;;3.55;1.13;;;;;;;8.21;66.37;98919.75;4954305;29;19977;-86
2020/12/14 04:03:53;;;;;;;4.82;1.30;;;;;;;8.24;67.33;98916.09;4954023;28;20130;-86
2020/12/14 04:06:21;;;;;;;5.32;1.65;;;;;;;8.22;67.15;98915.34;4953867;29;20129;-86
2020/12/14 04:08:47;;;;;;;6.45;1.67;;;;;;;8.20;67.08;98919.84;4956763;28;20051;-87
2020/12/14 04:11:14;;;;;;;3.25;1.30;;;;;;;8.19;67.24;98911.13;4959282;28;20051;-86
2020/12/14 04:13:41;;;;;;;4.22;1.50;;;;;;;8.19;67.01;98919.00;4957640;29;20518;-86
2020/12/14 04:16:08;;;;;;;3.58;1.58;;;;;;;8.17;67.25;98923.50;4957562;28;20056;-87
2020/12/14 04:18:35;;;;;;;4.28;1.27;;;;;;;8.17;67.26;98915.63;4958983;28;20055;-86
2020/12/14 04:21:03;;;;;;;3.83;1.20;;;;;;;8.15;66.76;98908.81;4959098;28;20047;-86
2020/12/14 04:23:29;;;;;;;2.53;1.23;;;;;;;8.17;67.03;98899.91;4958594;28;20054;-86
2020/12/14 04:25:56;;;;;;;2.38;1.25;;;;;;;8.17;67.34;98902.53;4957421;28;20081;-87
2020/12/14 04:28:22;;;;;;;5.43;1.42;;;;;;;8.20;67.43;98904.13;4957677;29;20047;-86
2020/12/14 04:30:49;;;;;;;4.35;1.60;;;;;;;8.20;67.16;98920.69;4957515;29;20051;-86
2020/12/14 04:33:15;;;;;;;3.67;1.30;;;;;;;8.23;67.17;98913.56;4958770;28;20051;-87
2020/12/14 04:35:41;;;;;;;1.95;1.10;;;;;;;8.26;67.39;98921.25;4958450;28;20051;-87
2020/12/14 04:38:15;;;;;;;4.60;1.25;;;;;;;8.28;67.52;98907.13;4957624;29;20047;-86
2020/12/14 04:40:48;;;;;;;2.03;1.23;;;;;;;8.31;66.64;98912.19;4925333;28;20406;-86
2020/12/14 04:43:16;;;;;;;2.95;1.17;;;;;;;8.35;67.51;98918.91;4957550;29;20043;-87
2020/12/14 04:45:43;;;;;;;5.97;1.30;;;;;;;8.39;67.26;98913.47;4957875;28;20059;-87
2020/12/14 04:48:10;;;;;;;3.97;1.13;;;;;;;8.42;67.49;98911.53;4957526;28;20059;-87
2020/12/14 04:50:39;;;;;;;4.45;1.58;;;;;;;8.45;66.92;98910.47;4957752;28;20055;-86
2020/12/14 04:53:05;;;;;;;2.38;1.08;;;;;;;8.49;67.18;98909.34;4958032;28;20047;-86
2020/12/14 05:01:46;;;;;;;5.10;1.35;;;;;;;8.54;65.32;98912.56;5035556;23;20098;-86
2020/12/14 05:07:43;;;;;;;5.53;1.08;;;;;;;8.63;66.18;98912.94;5001561;23;20047;-86
2020/12/14 05:10:13;;;;;;;3.33;1.42;;;;;;;8.68;66.35;98916.91;4961583;29;20501;-88
2020/12/14 05:12:41;;;;;;;4.20;1.33;;;;;;;8.70;66.60;98912.44;4961250;28;20054;-88
2020/12/14 05:15:28;;;;;;;5.13;1.48;;;;;;;8.69;65.70;98905.50;4959687;28;20058;-86
2020/12/14 05:18:16;;;;;;;6.03;1.55;;;;;;;8.71;65.23;98914.13;4961666;29;20514;-89
2020/12/14 05:20:54;;;;;;;4.00;1.40;;;;;;;8.77;67.03;98907.66;4959470;28;20059;-88
2020/12/14 05:23:20;;;;;;;3.75;1.10;;;;;;;8.78;67.05;98911.94;4962747;28;20043;-87
2020/12/14 05:25:47;;;;;;;3.70;1.42;;;;;;;8.78;66.91;98924.25;4961812;28;20073;-88
2020/12/14 05:28:16;;;;;;;4.53;1.15;;;;;;;8.77;66.73;98918.13;4961312;28;20051;-86
2020/12/14 05:30:47;;;;;;;4.35;1.30;;;;;;;8.75;66.63;98913.94;4963024;28;20055;-89
2020/12/14 05:33:22;;;;;;;3.42;1.40;;;;;;;8.73;66.74;98924.53;4961123;28;20051;-88
2020/12/14 05:35:49;;;;;;;5.00;1.27;;;;;;;8.70;67.11;98917.69;4960595;28;20051;-86
2020/12/14 05:38:23;;;;;;;4.72;1.42;;;;;;;8.64;66.20;98920.72;4959421;28;20058;-89
2020/12/14 05:40:56;;;;;;;5.30;1.60;;;;;;;8.60;67.16;98914.78;4961656;29;20055;-87
2020/12/14 05:43:28;;;;;;;3.80;1.30;;;;;;;8.53;67.30;98917.91;4960504;29;20057;-87
2020/12/14 05:46:18;;;;;;;3.88;1.30;;;;;;;8.45;67.93;98921.78;4960056;28;20055;-88
2020/12/14 05:48:44;;;;;;;2.80;1.10;;;;;;;8.38;68.13;98917.88;4961999;29;20057;-87
2020/12/14 05:51:12;;;;;;;1.73;1.10;;;;;;;8.32;68.29;98907.75;4960123;29;20063;-89
2020/12/14 05:53:57;;;;;;;7.75;1.80;;;;;;;8.24;68.48;98916.09;4960866;29;20051;-90
2020/12/14 05:56:25;;;;;;;6.13;1.38;;;;;;;8.19;68.96;98919.00;4960303;28;20417;-87
2020/12/14 05:58:54;;;;;;;3.42;1.27;;;;;;;8.16;69.02;98911.34;4960757;28;20066;-89
2020/12/14 06:01:21;;;;;;;7.55;1.48;;;;;;;8.13;69.57;98895.78;4961425;28;20055;-87
2020/12/14 06:03:48;;;;;;;3.47;1.20;;;;;;;8.10;69.69;98901.22;4961438;29;20073;-86
2020/12/14 06:06:19;;;;;;;4.30;1.17;;;;;;;8.09;70.26;98899.53;4962974;28;20429;-88
2020/12/14 06:08:45;;;;;;;3.05;1.33;;;;;;;8.09;69.97;98889.03;4961933;28;20083;-88
2020/12/14 06:11:13;;;;;;;5.93;1.60;;;;;;;8.07;70.26;98893.53;4962149;28;20055;-89
2020/12/14 06:13:49;;;;;;;2.90;1.00;;;;;;;8.05;70.79;98895.41;4961972;28;20050;-87
2020/12/14 06:16:27;;;;;;;2.58;1.38;;;;;;;8.05;70.79;98879.69;4960991;28;20057;-89
2020/12/14 06:18:56;;;;;;;5.28;1.20;;;;;;;8.08;71.13;98884.75;4960333;29;20058;-87
2020/12/14 06:22:02;;;;;;;2.55;1.35;;;;;;;8.05;71.16;98875.28;4959853;29;20057;-88
2020/12/14 06:24:31;;;;;;;5.00;1.33;;;;;;;8.08;71.12;98877.69;4961262;28;20486;-89
2020/12/14 06:26:59;;;;;;;3.70;1.30;;;;;;;8.11;70.83;98876.66;4959898;28;20047;-87
2020/12/14 06:29:31;;;;;;;2.53;1.30;;;;;;;8.12;71.57;98888.00;4960045;29;20569;-86
2020/12/14 06:32:00;;;;;;;2.35;0.95;;;;;;;8.16;71.44;98892.13;4961378;28;20047;-88
2020/12/14 06:34:32;;;;;;;4.07;1.40;;;;;;;8.16;71.62;98887.75;4959587;28;20051;-89
2020/12/14 06:37:03;;;;;;;4.95;1.20;;;;;;;8.19;71.66;98895.41;4960455;28;20057;-86
2020/12/14 06:39:37;;;;;;;5.38;1.40;;;;;;;8.21;71.59;98890.91;4959174;28;20055;-88
2020/12/14 06:42:07;;;;;;;2.90;1.30;;;;;;;8.25;71.72;98893.31;4958906;28;20119;-89
2020/12/14 06:44:55;;;;;;;3.63;1.55;;;;;;;8.26;71.57;98893.25;4959044;29;20126;-89
2020/12/14 06:47:22;;;;;;;2.67;1.63;;;;;;;8.30;71.82;98884.25;4944149;28;20055;-87
2020/12/14 06:49:53;;;;;;;5.40;1.65;;;;;;;8.33;71.66;98876.19;4960862;28;20051;-88
2020/12/14 06:52:35;;;;;;;3.97;1.30;;;;;;;8.33;71.49;98872.72;4959816;28;20047;-88
2020/12/14 06:55:03;;;;;;;6.95;1.60;;;;;;;8.38;71.70;98875.94;4959211;28;20057;-90
2020/12/14 06:57:37;;;;;;;4.90;1.40;;;;;;;8.39;71.54;98876.75;4959527;29;20055;-91
2020/12/14 07:00:05;;;;;;;3.30;1.45;;;;;;;8.43;71.43;98873.84;4961879;28;20073;-87
2020/12/14 07:02:43;;;;;;;4.90;1.45;;;;;;;8.43;71.24;98873.84;4957305;29;20413;-88
2020/12/14 07:05:28;;;;;;;6.65;1.50;;;;;;;8.46;71.01;98878.06;4957863;28;20062;-87
2020/12/14 07:07:54;;;;;;;3.67;1.35;;;;;;;8.51;71.34;98865.50;4960825;29;20429;-87
2020/12/14 07:10:27;;;;;;;5.03;1.70;;;;;;;8.53;71.47;98870.69;4957177;29;20494;-89
2020/12/14 07:12:54;;;;;;;1.15;0.95;;;;;;;8.56;71.45;98868.69;4957045;28;20480;-86
2020/12/14 07:15:35;;;;;;;2.97;1.30;;;;;;;8.59;71.14;98867.66;4958233;28;20055;-89
2020/12/14 07:18:05;;;;;;;3.30;1.17;;;;;;;8.62;71.15;98872.72;4959890;29;20463;-87
2020/12/14 07:20:32;;;;;;;4.20;1.67;;;;;;;8.65;71.51;98867.28;4960368;29;20054;-88
2020/12/14 07:23:19;;;;;;;5.70;1.30;;;;;;;8.65;70.79;98879.56;4958808;29;20051;-85
2020/12/14 07:25:48;;;;;;;4.32;1.33;;;;;;;8.72;71.48;98883.47;4958848;28;20122;-86
2020/12/14 07:28:15;;;;;;;4.20;1.50;;;;;;;8.76;71.21;98884.97;4959484;28;20082;-87
2020/12/14 07:30:42;;;;;;;5.75;1.70;;;;;;;8.77;70.92;98886.66;4958593;28;20051;-90
2020/12/14 07:33:09;;;;;;;3.22;1.38;;;;;;;8.81;70.94;98882.91;4958464;29;20055;-89
2020/12/14 07:35:35;;;;;;;3.03;1.25;;;;;;;8.84;71.09;98879.22;4960026;28;20051;-89
2020/12/14 07:38:01;;;;;;;4.68;1.10;;;;;;;8.89;71.44;98884.19;4960813;28;20055;-89
2020/12/14 07:40:27;;;;;;;4.28;1.75;;;;;;;8.93;71.20;98886.50;4960280;29;20043;-88
2020/12/14 07:42:55;;;;;;;6.55;1.70;;;;;;;8.97;70.97;98890.63;4959299;28;20047;-86
2020/12/14 07:45:25;;;;;;;3.90;1.50;;;;;;;8.99;70.88;98894.00;4956863;28;20055;-87
2020/12/14 07:47:54;;;;;;;3.38;1.33;;;;;;;9.04;70.87;98892.88;4958979;29;20047;-89
2020/12/14 07:50:22;;;;;;;4.93;1.40;;;;;;;9.08;71.02;98899.59;4959960;28;20421;-90
2020/12/14 07:52:50;;;;;;;3.45;1.58;;;;;;;9.12;71.03;98890.56;4959886;28;20047;-89
2020/12/14 07:55:17;;;;;;;5.47;1.40;;;;;;;9.16;70.69;98892.03;4958379;28;20130;-88
2020/12/14 07:57:45;;;;;;;4.93;1.15;;;;;;;9.21;71.06;98902.25;4956152;28;20489;-88
2020/12/14 08:00:24;;;;;;;4.07;1.52;;;;;;;9.24;70.83;98921.28;4957476;28;20114;-87
2020/12/14 08:02:54;;;;;;;2.60;1.50;;;;;;;9.29;70.79;98907.00;4959147;28;20047;-89
2020/12/14 08:05:21;;;;;;;5.10;1.40;;;;;;;9.32;70.53;98906.81;4957223;28;20098;-88
2020/12/14 08:08:01;;;;;;;4.32;1.38;;;;;;;9.32;69.98;98914.69;4960243;28;20055;-86
2020/12/14 08:10:32;;;;;;;4.82;1.50;;;;;;;9.38;70.62;98919.53;4957508;28;20055;-88
2020/12/14 08:13:01;;;;;;;5.47;1.85;;;;;;;9.39;70.28;98914.19;4959863;28;20119;-87
2020/12/14 08:15:31;;;;;;;3.72;1.30;;;;;;;9.43;70.50;98919.22;4959612;28;20047;-87
2020/12/14 08:18:04;;;;;;;2.83;1.70;;;;;;;9.41;69.29;98924.59;4961053;28;20127;-88
2020/12/14 08:20:36;;;;;;;3.95;1.65;;;;;;;9.45;70.30;98915.56;4956977;28;20078;-88
2020/12/14 08:23:22;;;;;;;2.35;1.20;;;;;;;9.45;69.73;98917.34;4959209;29;20130;-89
2020/12/14 08:25:52;;;;;;;4.07;1.42;;;;;;;9.50;70.38;98920.53;4959009;28;20055;-87
2020/12/14 08:28:36;;;;;;;4.68;1.50;;;;;;;9.49;68.93;98934.59;4958474;28;20047;-87
2020/12/14 08:31:05;;;;;;;5.22;1.40;;;;;;;9.54;70.16;98929.03;4958200;28;20127;-87
2020/12/14 08:33:33;;;;;;;2.72;1.30;;;;;;;9.57;70.69;98936.72;4957210;28;20047;-87
2020/12/14 08:36:09;;;;;;;3.83;1.45;;;;;;;9.58;69.89;98927.88;4959793;28;20134;-88
2020/12/14 08:38:36;;;;;;;3.42;1.60;;;;;;;9.63;70.62;98931.06;4960252;29;20051;-88
2020/12/14 08:41:05;;;;;;;2.67;1.27;;;;;;;9.65;70.55;98937.06;4956346;28;20121;-88
2020/12/14 08:43:34;;;;;;;5.80;1.63;;;;;;;9.67;70.15;98936.94;4958180;28;20047;-88
2020/12/14 08:46:11;;;;;;;2.75;1.50;;;;;;;9.69;70.43;98927.19;4957494;28;20082;-88
2020/12/14 08:48:41;;;;;;;1.80;1.38;;;;;;;9.68;70.41;98923.69;4958248;28;20048;-88
2020/12/14 08:51:18;;;;;;;3.90;1.30;;;;;;;9.64;70.07;98930.94;4960294;29;20047;-90
2020/12/14 08:53:49;;;;;;;2.88;1.50;;;;;;;9.65;70.23;98927.38;4956263;28;20051;-89
2020/12/14 08:56:18;;;;;;;2.80;1.33;;;;;;;9.64;70.55;98941.47;4960708;28;20051;-90
2020/12/14 08:58:48;;;;;;;3.45;1.65;;;;;;;9.60;69.89;98936.50;4961360;29;20421;-90
2020/12/14 09:01:15;;;;;;;4.18;1.40;;;;;;;9.63;70.97;98931.06;4960391;28;20067;-87
2020/12/14 09:03:47;;;;;;;5.00;1.75;;;;;;;9.61;70.87;98940.84;4963148;29;20498;-87
2020/12/14 09:06:35;;;;;;;2.33;1.25;;;;;;;9.60;70.71;98932.09;4963149;28;20536;-86
2020/12/14 09:09:12;;;;;;;3.13;1.58;;;;;;;9.65;70.91;98930.00;4961850;28;20051;-88
2020/12/14 09:11:41;;;;;;;2.25;1.65;;;;;;;9.69;71.12;98940.31;4962461;28;20056;-88
2020/12/14 09:14:09;;;;;;;4.55;1.45;;;;;;;9.70;71.04;98942.84;4962251;29;20061;-90
2020/12/14 09:16:36;;;;;;;4.00;1.35;;;;;;;9.73;71.61;98945.28;4961168;28;20134;-90
2020/12/14 09:19:03;;;;;;;6.05;1.52;;;;;;;9.75;71.36;98947.78;4963682;28;20082;-88
2020/12/14 09:21:33;;;;;;;3.05;1.40;;;;;;;9.75;71.34;98943.38;4960288;28;20058;-88
2020/12/14 09:24:23;;;;;;;4.15;1.83;;;;;;;9.75;71.20;98934.63;4959055;29;20053;-90
2020/12/14 09:26:51;;;;;;;4.53;1.42;;;;;;;9.79;71.33;98946.63;4961199;28;20528;-88
2020/12/14 09:29:17;;;;;;;3.78;1.45;;;;;;;9.80;71.36;98956.22;4962537;28;20057;-88
2020/12/14 09:31:48;;;;;;;3.30;1.70;;;;;;;9.78;71.34;98956.31;4959995;29;20051;-90
2020/12/14 09:34:19;;;;;;;2.63;1.80;;;;;;;9.77;71.96;98959.03;4960419;28;20055;-88
2020/12/14 09:36:49;;;;;;;4.57;1.67;;;;;;;9.80;71.67;98955.38;4960493;28;20081;-89
2020/12/14 09:39:18;;;;;;;2.53;1.60;;;;;;;9.80;71.74;98963.25;4962007;28;20063;-89
2020/12/14 09:41:45;;;;;;;1.92;1.40;;;;;;;9.82;71.97;98966.59;4962230;29;20051;-88
2020/12/14 09:44:11;;;;;;;3.88;1.67;;;;;;;9.82;71.95;98964.84;4959753;28;20051;-89
2020/12/14 09:46:37;;;;;;;5.03;1.90;;;;;;;9.84;71.83;98977.88;4962962;28;20062;-90
2020/12/14 09:49:04;;;;;;;8.55;2.00;;;;;;;9.85;71.96;98974.28;4961248;28;20051;-90
2020/12/14 09:51:33;;;;;;;2.67;1.70;;;;;;;9.88;72.13;98976.72;4961014;28;20057;-89
2020/12/14 09:53:59;;;;;;;2.72;1.92;;;;;;;9.88;72.19;98968.84;4962416;28;20130;-91
2020/12/14 09:56:27;;;;;;;1.92;1.52;;;;;;;9.91;72.21;98976.53;4961379;28;20039;-91
2020/12/14 09:58:53;;;;;;;5.60;1.70;;;;;;;9.94;72.39;98972.84;4961732;29;20046;-90
2020/12/14 10:01:24;;;;;;;2.92;1.60;;;;;;;9.95;72.22;98967.50;4959814;28;20055;-91
2020/12/14 10:03:51;;;;;;;4.47;1.90;;;;;;;9.98;72.18;98964.63;4960476;28;20476;-92
2020/12/14 10:06:17;;;;;;;2.63;1.45;;;;;;;10.01;72.42;98951.28;4960992;28;20075;-90
2020/12/14 10:08:43;;;;;;;7.95;1.75;;;;;;;10.03;72.31;98946.75;4960512;28;20521;-89
2020/12/14 10:11:10;;;;;;;4.13;2.22;;;;;;;10.07;72.65;98962.34;4960787;28;20087;-89
2020/12/14 10:13:41;;;;;;;6.22;1.90;;;;;;;10.10;72.24;98967.41;4961698;28;20047;-89
2020/12/14 10:16:09;;;;;;;3.95;1.83;;;;;;;10.11;72.33;98975.19;4958378;28;20057;-89
2020/12/14 10:18:35;;;;;;;4.22;1.90;;;;;;;10.13;72.36;98972.47;4960881;28;20055;-91
2020/12/14 10:21:03;;;;;;;4.35;1.80;;;;;;;10.14;72.34;98971.50;4959317;28;20126;-89
2020/12/14 10:23:29;;;;;;;3.78;1.88;;;;;;;10.15;72.44;98978.44;4961037;28;20098;-90
2020/12/14 10:25:56;;;;;;;2.60;1.90;;;;;;;10.15;72.47;98973.19;4960929;28;20403;-92
2020/12/14 10:28:23;;;;;;;2.50;1.63;;;;;;;10.15;72.56;98981.91;4959561;29;20066;-92
2020/12/14 10:30:49;;;;;;;2.53;1.70;;;;;;;10.16;72.57;98988.00;4957769;28;20082;-89
2020/12/14 10:33:18;;;;;;;3.15;1.85;;;;;;;10.19;72.60;98993.06;4958788;28;20065;-89
2020/12/14 10:35:48;;;;;;;3.08;2.00;;;;;;;10.19;72.95;98985.19;4961880;28;20066;-89
2020/12/14 10:38:15;;;;;;;4.50;2.00;;;;;;;10.19;72.96;98993.06;4961674;28;20168;-90
2020/12/14 10:40:42;;;;;;;4.43;2.15;;;;;;;10.19;72.91;99000.97;4957996;28;20051;-89
2020/12/14 10:43:08;;;;;;;4.90;2.17;;;;;;;10.20;73.03;99000.00;4960852;28;20070;-90
2020/12/14 10:45:35;;;;;;;4.53;2.42;;;;;;;10.18;73.15;98991.38;4961125;28;20063;-90
2020/12/14 10:48:02;;;;;;;4.80;2.13;;;;;;;10.20;73.39;98997.38;4961091;28;20062;-88
2020/12/14 10:50:29;;;;;;;6.57;2.55;;;;;;;10.20;73.50;98992.09;4959221;28;20514;-88
2020/12/14 10:52:55;;;;;;;4.82;2.30;;;;;;;10.22;73.70;98999.91;4958536;28;20477;-91
2020/12/14 10:55:25;;;;;;;6.35;2.45;;;;;;;10.22;73.93;98994.66;4959814;28;20557;-90
2020/12/14 10:57:52;;;;;;;4.05;2.47;;;;;;;10.22;73.92;98990.25;4958812;28;20132;-91
2020/12/14 11:00:21;;;;;;;3.58;2.35;;;;;;;10.23;74.14;98991.91;4958963;28;20063;-88
2020/12/14 11:02:47;;;;;;;3.33;2.47;;;;;;;10.26;74.24;98991.72;4961030;28;20047;-88
2020/12/14 11:05:16;;;;;;;4.28;2.58;;;;;;;10.26;74.29;98991.72;4959199;28;20421;-88
2020/12/14 11:07:43;;;;;;;4.60;2.58;;;;;;;10.29;74.51;98988.03;4997884;23;20070;-91
2020/12/14 11:10:10;;;;;;;3.42;2.65;;;;;;;10.30;74.41;98998.44;4955340;29;20513;-92
2020/12/14 11:12:36;;;;;;;3.67;3.08;;;;;;;10.31;74.71;98999.28;4956141;28;20050;-91
2020/12/14 11:15:07;;;;;;;4.07;2.92;;;;;;;10.35;74.74;98997.28;4954957;28;20051;-91
2020/12/14 11:17:35;;;;;;;4.40;3.47;;;;;;;10.35;74.86;98995.47;4955253;28;20142;-91
2020/12/14 11:20:04;;;;;;;4.18;3.47;;;;;;;10.35;75.39;99002.56;4956351;28;20058;-92
2020/12/14 11:22:31;;;;;;;4.60;3.50;;;;;;;10.39;74.76;98990.88;4956018;28;20047;-91
2020/12/14 11:24:57;;;;;;;5.30;3.38;;;;;;;10.40;75.03;98996.00;4956159;28;20413;-91
2020/12/14 11:27:24;;;;;;;4.65;3.38;;;;;;;10.42;75.07;98995.91;4956223;28;20057;-90
2020/12/14 11:29:51;;;;;;;6.35;3.60;;;;;;;10.45;75.21;98990.47;4956053;28;20083;-91
2020/12/14 11:32:17;;;;;;;5.25;3.47;;;;;;;10.47;75.12;98983.28;4954779;28;20065;-91
2020/12/14 11:34:43;;;;;;;5.00;4.07;;;;;;;10.48;75.16;98990.28;4955021;28;20506;-92
2020/12/14 11:37:10;;;;;;;5.95;4.10;;;;;;;10.51;75.17;98990.03;4954558;28;20047;-91
2020/12/14 11:39:36;;;;;;;8.60;4.88;;;;;;;10.53;75.23;98984.66;4954814;28;20059;-91
2020/12/14 11:42:03;;;;;;;6.15;3.78;;;;;;;10.55;75.32;98980.97;4954515;28;20528;-91
2020/12/14 11:44:29;;;;;;;7.63;4.18;;;;;;;10.58;75.22;98989.63;4954747;29;20126;-91
2020/12/14 11:46:55;;;;;;;5.55;4.10;;;;;;;10.61;75.25;98989.41;4955521;28;20506;-92
2020/12/14 11:49:21;;;;;;;5.63;3.80;;;;;;;10.62;75.37;98993.72;4954629;29;20083;-91
2020/12/14 11:51:48;;;;;;;6.45;4.28;;;;;;;10.65;75.34;98985.63;4954490;29;20047;-91
2020/12/14 11:54:15;;;;;;;4.85;3.67;;;;;;;10.66;75.45;98979.41;4954202;29;20130;-91
2020/12/14 11:56:44;;;;;;;7.03;4.35;;;;;;;10.66;75.35;98982.03;4955790;28;20087;-90
2020/12/14 11:59:12;;;;;;;5.15;4.07;;;;;;;10.70;75.22;98978.25;4955667;28;20078;-90
2020/12/14 12:01:38;;;;;;;4.70;4.10;;;;;;;10.72;75.28;98983.41;4955510;28;20441;-91